Terminal Aerodrome Forecast
Issued by NWS

Home | Current Version | Previous Version | Text Only | Print | Product List | Glossary On
Versions: 1 2 3 4 5 6 7 8 9 10 11 12 13 14 15 16
543
FTUS46 KPDT 021130
TAFBDN
TAF
KBDN 021130Z 0212/0312 22004KT P6SM SKC
     FM022100 24008KT P6SM SCT070
     FM030100 27008KT P6SM VCSH BKN070
     FM030900 21008KT P6SM FEW070=

USA.gov is the U.S. government's official web portal to all federal, state and local government web resources and services.